sensor_id;sensor_type;location;lat;lon;timestamp;temperature;humidity
7002;DHT22;3541;53.230;10.518;2023-08-08T00:00:40;14.00;99.90
7002;DHT22;3541;53.230;10.518;2023-08-08T00:03:07;14.10;99.90
7002;DHT22;3541;53.230;10.518;2023-08-08T00:05:34;14.00;99.90
7002;DHT22;3541;53.230;10.518;2023-08-08T00:08:01;14.00;99.90
7002;DHT22;3541;53.230;10.518;2023-08-08T00:10:29;14.00;99.90
7002;DHT22;3541;53.230;10.518;2023-08-08T00:12:55;14.00;99.90
7002;DHT22;3541;53.230;10.518;2023-08-08T00:15:22;14.00;99.90
7002;DHT22;3541;53.230;10.518;2023-08-08T00:17:48;13.90;99.90
7002;DHT22;3541;53.230;10.518;2023-08-08T00:20:15;13.90;99.90
7002;DHT22;3541;53.230;10.518;2023-08-08T00:22:42;14.00;99.90
7002;DHT22;3541;53.230;10.518;2023-08-08T00:25:08;14.10;99.90
7002;DHT22;3541;53.230;10.518;2023-08-08T00:27:36;14.10;99.90
7002;DHT22;3541;53.230;10.518;2023-08-08T00:30:08;14.00;99.90
7002;DHT22;3541;53.230;10.518;2023-08-08T00:32:35;14.00;99.90
7002;DHT22;3541;53.230;10.518;2023-08-08T00:35:02;14.10;99.90
7002;DHT22;3541;53.230;10.518;2023-08-08T00:37:28;14.00;99.90
7002;DHT22;3541;53.230;10.518;2023-08-08T00:39:55;13.90;99.90
7002;DHT22;3541;53.230;10.518;2023-08-08T00:42:22;13.90;99.90
7002;DHT22;3541;53.230;10.518;2023-08-08T00:44:50;13.90;99.90
7002;DHT22;3541;53.230;10.518;2023-08-08T00:47:17;13.90;99.90
7002;DHT22;3541;53.230;10.518;2023-08-08T00:49:43;13.90;99.90
7002;DHT22;3541;53.230;10.518;2023-08-08T00:52:12;13.90;99.90
7002;DHT22;3541;53.230;10.518;2023-08-08T00:54:39;13.90;99.90
7002;DHT22;3541;53.230;10.518;2023-08-08T00:57:06;14.00;99.90
7002;DHT22;3541;53.230;10.518;2023-08-08T00:59:33;14.00;99.90
7002;DHT22;3541;53.230;10.518;2023-08-08T01:02:01;14.00;99.90
7002;DHT22;3541;53.230;10.518;2023-08-08T01:04:27;13.90;99.90
7002;DHT22;3541;53.230;10.518;2023-08-08T01:07:00;14.00;99.90
7002;DHT22;3541;53.230;10.518;2023-08-08T01:09:32;13.90;99.90
7002;DHT22;3541;53.230;10.518;2023-08-08T01:12:00;14.00;99.90
7002;DHT22;3541;53.230;10.518;2023-08-08T01:14:29;13.90;99.90
7002;DHT22;3541;53.230;10.518;2023-08-08T01:16:57;13.90;99.90
7002;DHT22;3541;53.230;10.518;2023-08-08T01:19:27;13.90;99.90
7002;DHT22;3541;53.230;10.518;2023-08-08T01:21:54;14.00;99.90
7002;DHT22;3541;53.230;10.518;2023-08-08T01:24:25;14.00;99.90
7002;DHT22;3541;53.230;10.518;2023-08-08T01:26:54;14.00;99.90
7002;DHT22;3541;53.230;10.518;2023-08-08T01:29:21;14.00;99.90
7002;DHT22;3541;53.230;10.518;2023-08-08T01:31:48;14.00;99.90
7002;DHT22;3541;53.230;10.518;2023-08-08T01:34:15;14.00;99.90
7002;DHT22;3541;53.230;10.518;2023-08-08T01:36:44;14.00;99.90
7002;DHT22;3541;53.230;10.518;2023-08-08T01:39:16;14.00;99.90
7002;DHT22;3541;53.230;10.518;2023-08-08T01:41:46;14.00;99.90
7002;DHT22;3541;53.230;10.518;2023-08-08T01:44:13;14.00;99.90
7002;DHT22;3541;53.230;10.518;2023-08-08T01:46:41;14.00;99.90
7002;DHT22;3541;53.230;10.518;2023-08-08T01:49:07;14.00;99.90
7002;DHT22;3541;53.230;10.518;2023-08-08T01:51:34;14.00;99.90
7002;DHT22;3541;53.230;10.518;2023-08-08T01:54:00;14.00;99.90
7002;DHT22;3541;53.230;10.518;2023-08-08T01:56:28;14.00;99.90
7002;DHT22;3541;53.230;10.518;2023-08-08T01:58:56;14.00;99.90
7002;DHT22;3541;53.230;10.518;2023-08-08T02:01:22;14.00;99.90
7002;DHT22;3541;53.230;10.518;2023-08-08T02:03:49;14.00;99.90
7002;DHT22;3541;53.230;10.518;2023-08-08T02:06:16;14.10;99.90
7002;DHT22;3541;53.230;10.518;2023-08-08T02:08:42;14.00;99.90
7002;DHT22;3541;53.230;10.518;2023-08-08T02:11:09;14.00;99.90
7002;DHT22;3541;53.230;10.518;2023-08-08T02:13:35;13.90;99.90
7002;DHT22;3541;53.230;10.518;2023-08-08T02:16:03;13.90;99.90
7002;DHT22;3541;53.230;10.518;2023-08-08T02:18:30;13.90;99.90
7002;DHT22;3541;53.230;10.518;2023-08-08T02:20:57;13.90;99.90
7002;DHT22;3541;53.230;10.518;2023-08-08T02:23:23;13.90;99.90
7002;DHT22;3541;53.230;10.518;2023-08-08T02:25:51;13.90;99.90
7002;DHT22;3541;53.230;10.518;2023-08-08T02:28:18;14.00;99.90
7002;DHT22;3541;53.230;10.518;2023-08-08T02:30:45;13.90;99.90
7002;DHT22;3541;53.230;10.518;2023-08-08T02:33:12;13.90;99.90
7002;DHT22;3541;53.230;10.518;2023-08-08T02:35:39;13.90;99.90
7002;DHT22;3541;53.230;10.518;2023-08-08T02:38:06;13.80;99.90
7002;DHT22;3541;53.230;10.518;2023-08-08T02:40:33;13.80;99.90
7002;DHT22;3541;53.230;10.518;2023-08-08T02:42:59;13.90;99.90
7002;DHT22;3541;53.230;10.518;2023-08-08T02:45:26;13.80;99.90
7002;DHT22;3541;53.230;10.518;2023-08-08T02:47:52;13.90;99.90
7002;DHT22;3541;53.230;10.518;2023-08-08T02:50:20;13.70;99.90
7002;DHT22;3541;53.230;10.518;2023-08-08T02:52:47;13.70;99.90
7002;DHT22;3541;53.230;10.518;2023-08-08T02:55:14;13.80;99.90
7002;DHT22;3541;53.230;10.518;2023-08-08T02:57:41;13.70;99.90
7002;DHT22;3541;53.230;10.518;2023-08-08T03:00:08;13.70;99.90
7002;DHT22;3541;53.230;10.518;2023-08-08T03:02:36;13.60;99.90
7002;DHT22;3541;53.230;10.518;2023-08-08T03:05:04;13.60;99.90
7002;DHT22;3541;53.230;10.518;2023-08-08T03:07:32;13.60;99.90
7002;DHT22;3541;53.230;10.518;2023-08-08T03:09:59;13.60;99.90
7002;DHT22;3541;53.230;10.518;2023-08-08T03:12:25;13.60;99.90
7002;DHT22;3541;53.230;10.518;2023-08-08T03:14:54;13.60;99.90
7002;DHT22;3541;53.230;10.518;2023-08-08T03:17:22;13.50;99.90
7002;DHT22;3541;53.230;10.518;2023-08-08T03:19:48;13.50;99.90
7002;DHT22;3541;53.230;10.518;2023-08-08T03:22:15;13.60;99.90
7002;DHT22;3541;53.230;10.518;2023-08-08T03:24:43;13.60;99.90
7002;DHT22;3541;53.230;10.518;2023-08-08T03:27:09;13.60;99.90
7002;DHT22;3541;53.230;10.518;2023-08-08T03:29:36;13.70;99.90
7002;DHT22;3541;53.230;10.518;2023-08-08T03:32:03;13.60;99.90
7002;DHT22;3541;53.230;10.518;2023-08-08T03:34:30;13.60;99.90
7002;DHT22;3541;53.230;10.518;2023-08-08T03:36:56;13.60;99.90
7002;DHT22;3541;53.230;10.518;2023-08-08T03:39:23;13.60;99.90
7002;DHT22;3541;53.230;10.518;2023-08-08T03:41:51;13.60;99.90
7002;DHT22;3541;53.230;10.518;2023-08-08T03:44:17;13.60;99.90
7002;DHT22;3541;53.230;10.518;2023-08-08T03:46:44;13.60;99.90
7002;DHT22;3541;53.230;10.518;2023-08-08T03:49:11;13.50;99.90
7002;DHT22;3541;53.230;10.518;2023-08-08T03:51:37;13.50;99.90
7002;DHT22;3541;53.230;10.518;2023-08-08T03:54:04;13.60;99.90
7002;DHT22;3541;53.230;10.518;2023-08-08T03:56:31;13.40;99.90
7002;DHT22;3541;53.230;10.518;2023-08-08T03:58:59;13.40;99.90
7002;DHT22;3541;53.230;10.518;2023-08-08T04:01:25;13.50;99.90
7002;DHT22;3541;53.230;10.518;2023-08-08T04:03:52;13.40;99.90
7002;DHT22;3541;53.230;10.518;2023-08-08T04:06:18;13.50;99.90
7002;DHT22;3541;53.230;10.518;2023-08-08T04:08:45;13.50;99.90
7002;DHT22;3541;53.230;10.518;2023-08-08T04:11:12;13.50;99.90
7002;DHT22;3541;53.230;10.518;2023-08-08T04:13:38;13.60;99.90
7002;DHT22;3541;53.230;10.518;2023-08-08T04:16:06;13.60;99.90
7002;DHT22;3541;53.230;10.518;2023-08-08T04:18:35;13.50;99.90
7002;DHT22;3541;53.230;10.518;2023-08-08T04:21:01;13.50;99.90
7002;DHT22;3541;53.230;10.518;2023-08-08T04:23:28;13.40;99.90
7002;DHT22;3541;53.230;10.518;2023-08-08T04:25:54;13.40;99.90
7002;DHT22;3541;53.230;10.518;2023-08-08T04:28:21;13.40;99.90
7002;DHT22;3541;53.230;10.518;2023-08-08T04:30:48;13.50;99.90
7002;DHT22;3541;53.230;10.518;2023-08-08T04:33:16;13.40;99.90
7002;DHT22;3541;53.230;10.518;2023-08-08T04:35:42;13.50;99.90
7002;DHT22;3541;53.230;10.518;2023-08-08T04:38:09;13.40;99.90
7002;DHT22;3541;53.230;10.518;2023-08-08T04:40:36;13.40;99.90
7002;DHT22;3541;53.230;10.518;2023-08-08T04:43:02;13.40;99.90
7002;DHT22;3541;53.230;10.518;2023-08-08T04:45:29;13.50;99.90
7002;DHT22;3541;53.230;10.518;2023-08-08T04:47:55;13.50;99.90
7002;DHT22;3541;53.230;10.518;2023-08-08T04:50:24;13.50;99.90
7002;DHT22;3541;53.230;10.518;2023-08-08T04:52:51;13.50;99.90
7002;DHT22;3541;53.230;10.518;2023-08-08T04:55:17;13.60;99.90
7002;DHT22;3541;53.230;10.518;2023-08-08T04:57:44;13.50;99.90
7002;DHT22;3541;53.230;10.518;2023-08-08T05:00:12;13.50;99.90
7002;DHT22;3541;53.230;10.518;2023-08-08T05:02:39;13.60;99.90
7002;DHT22;3541;53.230;10.518;2023-08-08T05:05:07;13.70;99.90
7002;DHT22;3541;53.230;10.518;2023-08-08T05:07:35;13.70;99.90
7002;DHT22;3541;53.230;10.518;2023-08-08T05:10:03;13.70;99.90
7002;DHT22;3541;53.230;10.518;2023-08-08T05:12:30;13.70;99.90
7002;DHT22;3541;53.230;10.518;2023-08-08T05:14:57;13.80;99.90
7002;DHT22;3541;53.230;10.518;2023-08-08T05:17:24;13.70;99.90
7002;DHT22;3541;53.230;10.518;2023-08-08T05:19:50;13.70;99.90
7002;DHT22;3541;53.230;10.518;2023-08-08T05:22:17;13.80;99.90
7002;DHT22;3541;53.230;10.518;2023-08-08T05:24:45;13.80;99.90
7002;DHT22;3541;53.230;10.518;2023-08-08T05:27:12;13.80;99.90
7002;DHT22;3541;53.230;10.518;2023-08-08T05:29:38;13.90;99.90
7002;DHT22;3541;53.230;10.518;2023-08-08T05:32:07;14.00;99.90
7002;DHT22;3541;53.230;10.518;2023-08-08T05:34:33;14.00;99.90
7002;DHT22;3541;53.230;10.518;2023-08-08T05:37:01;14.10;99.90
7002;DHT22;3541;53.230;10.518;2023-08-08T05:39:27;14.00;99.90
7002;DHT22;3541;53.230;10.518;2023-08-08T05:41:55;14.10;99.90
7002;DHT22;3541;53.230;10.518;2023-08-08T05:44:22;14.10;99.90
7002;DHT22;3541;53.230;10.518;2023-08-08T05:46:48;14.20;99.90
7002;DHT22;3541;53.230;10.518;2023-08-08T05:49:15;14.10;99.90
7002;DHT22;3541;53.230;10.518;2023-08-08T05:51:42;14.10;99.90
7002;DHT22;3541;53.230;10.518;2023-08-08T05:54:08;14.10;99.90
7002;DHT22;3541;53.230;10.518;2023-08-08T05:56:37;14.20;99.90
7002;DHT22;3541;53.230;10.518;2023-08-08T05:59:05;14.20;99.90
7002;DHT22;3541;53.230;10.518;2023-08-08T06:01:31;14.10;99.90
7002;DHT22;3541;53.230;10.518;2023-08-08T06:03:59;14.20;99.90
7002;DHT22;3541;53.230;10.518;2023-08-08T06:06:25;14.20;99.90
7002;DHT22;3541;53.230;10.518;2023-08-08T06:08:52;14.30;99.90
7002;DHT22;3541;53.230;10.518;2023-08-08T06:11:19;14.30;99.90
7002;DHT22;3541;53.230;10.518;2023-08-08T06:13:46;14.40;99.90
7002;DHT22;3541;53.230;10.518;2023-08-08T06:16:14;14.40;99.90
7002;DHT22;3541;53.230;10.518;2023-08-08T06:18:41;14.50;99.90
7002;DHT22;3541;53.230;10.518;2023-08-08T06:21:07;14.40;99.90
7002;DHT22;3541;53.230;10.518;2023-08-08T06:23:34;14.40;99.90
7002;DHT22;3541;53.230;10.518;2023-08-08T06:26:01;14.40;99.90
7002;DHT22;3541;53.230;10.518;2023-08-08T06:28:27;14.50;99.90
7002;DHT22;3541;53.230;10.518;2023-08-08T06:30:55;14.50;99.90
7002;DHT22;3541;53.230;10.518;2023-08-08T06:33:23;14.60;99.90
7002;DHT22;3541;53.230;10.518;2023-08-08T06:35:50;14.50;99.90
7002;DHT22;3541;53.230;10.518;2023-08-08T06:38:16;14.60;99.90
7002;DHT22;3541;53.230;10.518;2023-08-08T06:40:43;14.60;99.90
7002;DHT22;3541;53.230;10.518;2023-08-08T06:43:10;14.60;99.90
7002;DHT22;3541;53.230;10.518;2023-08-08T06:45:36;14.60;99.90
7002;DHT22;3541;53.230;10.518;2023-08-08T06:48:03;14.70;99.90
7002;DHT22;3541;53.230;10.518;2023-08-08T06:50:32;14.80;99.90
7002;DHT22;3541;53.230;10.518;2023-08-08T06:52:58;14.80;99.90
7002;DHT22;3541;53.230;10.518;2023-08-08T06:55:25;14.90;99.90
7002;DHT22;3541;53.230;10.518;2023-08-08T06:57:51;14.90;99.90
7002;DHT22;3541;53.230;10.518;2023-08-08T07:00:18;14.90;99.90
7002;DHT22;3541;53.230;10.518;2023-08-08T07:02:45;14.90;99.90
7002;DHT22;3541;53.230;10.518;2023-08-08T07:05:12;14.90;99.90
7002;DHT22;3541;53.230;10.518;2023-08-08T07:07:39;15.00;99.90
7002;DHT22;3541;53.230;10.518;2023-08-08T07:10:07;15.10;99.90
7002;DHT22;3541;53.230;10.518;2023-08-08T07:12:34;15.20;99.90
7002;DHT22;3541;53.230;10.518;2023-08-08T07:15:01;15.30;99.90
7002;DHT22;3541;53.230;10.518;2023-08-08T07:17:28;15.30;99.90
7002;DHT22;3541;53.230;10.518;2023-08-08T07:19:55;15.40;99.90
7002;DHT22;3541;53.230;10.518;2023-08-08T07:22:22;15.40;99.90
7002;DHT22;3541;53.230;10.518;2023-08-08T07:24:50;15.40;99.90
7002;DHT22;3541;53.230;10.518;2023-08-08T07:27:16;15.40;99.90
7002;DHT22;3541;53.230;10.518;2023-08-08T07:29:43;15.50;99.90
7002;DHT22;3541;53.230;10.518;2023-08-08T07:32:09;15.40;99.90
7002;DHT22;3541;53.230;10.518;2023-08-08T07:34:36;15.50;99.90
7002;DHT22;3541;53.230;10.518;2023-08-08T07:37:03;15.60;99.90
7002;DHT22;3541;53.230;10.518;2023-08-08T07:39:30;15.70;99.90
7002;DHT22;3541;53.230;10.518;2023-08-08T07:41:58;15.70;99.90
7002;DHT22;3541;53.230;10.518;2023-08-08T07:44:24;15.80;99.90
7002;DHT22;3541;53.230;10.518;2023-08-08T07:46:51;15.80;99.90
7002;DHT22;3541;53.230;10.518;2023-08-08T07:49:18;15.90;99.90
7002;DHT22;3541;53.230;10.518;2023-08-08T07:51:44;16.00;99.90
7002;DHT22;3541;53.230;10.518;2023-08-08T07:54:11;16.00;99.90
7002;DHT22;3541;53.230;10.518;2023-08-08T07:56:37;16.00;99.90
7002;DHT22;3541;53.230;10.518;2023-08-08T07:59:05;16.00;99.90
7002;DHT22;3541;53.230;10.518;2023-08-08T08:01:32;16.00;99.90
7002;DHT22;3541;53.230;10.518;2023-08-08T08:03:58;16.00;99.90
7002;DHT22;3541;53.230;10.518;2023-08-08T08:06:25;16.00;99.90
7002;DHT22;3541;53.230;10.518;2023-08-08T08:08:52;16.00;99.90
7002;DHT22;3541;53.230;10.518;2023-08-08T08:11:18;16.00;99.90
7002;DHT22;3541;53.230;10.518;2023-08-08T08:13:45;16.00;99.90
7002;DHT22;3541;53.230;10.518;2023-08-08T08:16:13;16.00;99.90
7002;DHT22;3541;53.230;10.518;2023-08-08T08:18:40;16.00;99.90
7002;DHT22;3541;53.230;10.518;2023-08-08T08:21:07;16.20;99.90
7002;DHT22;3541;53.230;10.518;2023-08-08T08:23:34;16.30;99.90
7002;DHT22;3541;53.230;10.518;2023-08-08T08:26:00;16.40;99.90
7002;DHT22;3541;53.230;10.518;2023-08-08T08:28:27;16.50;99.90
7002;DHT22;3541;53.230;10.518;2023-08-08T08:30:54;16.50;99.90
7002;DHT22;3541;53.230;10.518;2023-08-08T08:33:21;16.50;99.90
7002;DHT22;3541;53.230;10.518;2023-08-08T08:35:48;16.50;99.90
7002;DHT22;3541;53.230;10.518;2023-08-08T08:38:15;16.50;99.90
7002;DHT22;3541;53.230;10.518;2023-08-08T08:40:41;16.50;99.90
7002;DHT22;3541;53.230;10.518;2023-08-08T08:43:11;16.50;99.90
7002;DHT22;3541;53.230;10.518;2023-08-08T08:45:38;16.70;99.90
7002;DHT22;3541;53.230;10.518;2023-08-08T08:48:08;16.70;99.90
7002;DHT22;3541;53.230;10.518;2023-08-08T08:50:38;16.80;99.90
7002;DHT22;3541;53.230;10.518;2023-08-08T08:53:05;16.80;99.90
7002;DHT22;3541;53.230;10.518;2023-08-08T08:55:32;16.70;99.90
7002;DHT22;3541;53.230;10.518;2023-08-08T08:57:59;16.50;99.90
7002;DHT22;3541;53.230;10.518;2023-08-08T09:00:25;16.50;99.90
7002;DHT22;3541;53.230;10.518;2023-08-08T09:02:52;16.50;99.90
7002;DHT22;3541;53.230;10.518;2023-08-08T09:05:20;16.50;99.90
7002;DHT22;3541;53.230;10.518;2023-08-08T09:07:49;16.40;99.90
7002;DHT22;3541;53.230;10.518;2023-08-08T09:10:17;16.40;99.90
7002;DHT22;3541;53.230;10.518;2023-08-08T09:12:44;16.30;99.90
7002;DHT22;3541;53.230;10.518;2023-08-08T09:15:11;16.20;99.90
7002;DHT22;3541;53.230;10.518;2023-08-08T09:17:40;16.00;99.90
7002;DHT22;3541;53.230;10.518;2023-08-08T09:20:08;15.70;99.90
7002;DHT22;3541;53.230;10.518;2023-08-08T09:22:36;15.60;99.90
7002;DHT22;3541;53.230;10.518;2023-08-08T09:25:05;15.50;99.90
7002;DHT22;3541;53.230;10.518;2023-08-08T09:27:33;15.30;99.90
7002;DHT22;3541;53.230;10.518;2023-08-08T09:30:00;15.20;99.90
7002;DHT22;3541;53.230;10.518;2023-08-08T09:32:28;15.20;99.90
7002;DHT22;3541;53.230;10.518;2023-08-08T09:34:56;15.20;99.90
7002;DHT22;3541;53.230;10.518;2023-08-08T09:37:23;15.10;99.90
7002;DHT22;3541;53.230;10.518;2023-08-08T09:39:56;15.00;99.90
7002;DHT22;3541;53.230;10.518;2023-08-08T09:42:26;15.00;99.90
7002;DHT22;3541;53.230;10.518;2023-08-08T09:44:53;15.10;99.90
7002;DHT22;3541;53.230;10.518;2023-08-08T09:47:20;15.20;99.90
7002;DHT22;3541;53.230;10.518;2023-08-08T09:49:48;15.30;99.90
7002;DHT22;3541;53.230;10.518;2023-08-08T09:52:15;15.40;99.90
7002;DHT22;3541;53.230;10.518;2023-08-08T09:54:42;15.50;99.90
7002;DHT22;3541;53.230;10.518;2023-08-08T09:57:09;15.60;99.90
7002;DHT22;3541;53.230;10.518;2023-08-08T09:59:38;15.80;99.90
7002;DHT22;3541;53.230;10.518;2023-08-08T10:02:05;15.80;99.90
7002;DHT22;3541;53.230;10.518;2023-08-08T10:04:32;15.90;99.90
7002;DHT22;3541;53.230;10.518;2023-08-08T10:06:59;16.00;99.90
7002;DHT22;3541;53.230;10.518;2023-08-08T10:09:26;16.20;99.90
7002;DHT22;3541;53.230;10.518;2023-08-08T10:11:55;16.10;99.90
7002;DHT22;3541;53.230;10.518;2023-08-08T10:14:29;16.00;99.90
7002;DHT22;3541;53.230;10.518;2023-08-08T10:16:58;15.90;99.90
7002;DHT22;3541;53.230;10.518;2023-08-08T10:19:24;15.80;99.90
7002;DHT22;3541;53.230;10.518;2023-08-08T10:21:56;15.90;99.90
7002;DHT22;3541;53.230;10.518;2023-08-08T10:24:23;15.80;99.90
7002;DHT22;3541;53.230;10.518;2023-08-08T10:26:54;15.70;99.90
7002;DHT22;3541;53.230;10.518;2023-08-08T10:29:24;15.70;99.90
7002;DHT22;3541;53.230;10.518;2023-08-08T10:31:52;15.50;99.90
7002;DHT22;3541;53.230;10.518;2023-08-08T10:34:21;15.40;99.90
7002;DHT22;3541;53.230;10.518;2023-08-08T10:36:53;15.30;99.90
7002;DHT22;3541;53.230;10.518;2023-08-08T10:39:20;15.30;99.90
7002;DHT22;3541;53.230;10.518;2023-08-08T10:41:48;15.30;99.90
7002;DHT22;3541;53.230;10.518;2023-08-08T10:44:22;15.30;99.90
7002;DHT22;3541;53.230;10.518;2023-08-08T10:46:51;15.10;99.90
7002;DHT22;3541;53.230;10.518;2023-08-08T10:49:18;15.10;99.90
7002;DHT22;3541;53.230;10.518;2023-08-08T10:51:48;15.00;99.90
7002;DHT22;3541;53.230;10.518;2023-08-08T10:54:16;14.80;99.90
7002;DHT22;3541;53.230;10.518;2023-08-08T10:56:50;14.90;99.90
7002;DHT22;3541;53.230;10.518;2023-08-08T10:59:19;14.80;99.90
7002;DHT22;3541;53.230;10.518;2023-08-08T11:01:47;14.70;99.90
7002;DHT22;3541;53.230;10.518;2023-08-08T11:04:15;14.60;99.90
7002;DHT22;3541;53.230;10.518;2023-08-08T11:06:42;14.60;99.90
7002;DHT22;3541;53.230;10.518;2023-08-08T11:09:10;14.70;99.90
7002;DHT22;3541;53.230;10.518;2023-08-08T11:11:38;14.70;99.90
7002;DHT22;3541;53.230;10.518;2023-08-08T11:14:12;14.70;99.90
7002;DHT22;3541;53.230;10.518;2023-08-08T11:16:39;14.70;99.90
7002;DHT22;3541;53.230;10.518;2023-08-08T11:19:06;14.80;99.90
7002;DHT22;3541;53.230;10.518;2023-08-08T11:21:34;14.80;99.90
7002;DHT22;3541;53.230;10.518;2023-08-08T11:24:02;15.00;99.90
7002;DHT22;3541;53.230;10.518;2023-08-08T11:26:31;15.10;99.90
7002;DHT22;3541;53.230;10.518;2023-08-08T11:28:58;15.40;99.90
7002;DHT22;3541;53.230;10.518;2023-08-08T11:31:25;15.60;99.90
7002;DHT22;3541;53.230;10.518;2023-08-08T11:33:53;15.60;99.90
7002;DHT22;3541;53.230;10.518;2023-08-08T11:36:20;15.60;99.90
7002;DHT22;3541;53.230;10.518;2023-08-08T11:38:48;15.50;99.90
7002;DHT22;3541;53.230;10.518;2023-08-08T11:41:16;15.30;99.90
7002;DHT22;3541;53.230;10.518;2023-08-08T11:43:45;15.10;99.90
7002;DHT22;3541;53.230;10.518;2023-08-08T11:46:13;15.00;99.90
7002;DHT22;3541;53.230;10.518;2023-08-08T11:48:40;15.10;99.90
7002;DHT22;3541;53.230;10.518;2023-08-08T11:51:08;15.20;99.90
7002;DHT22;3541;53.230;10.518;2023-08-08T11:53:35;15.40;99.90
7002;DHT22;3541;53.230;10.518;2023-08-08T11:56:02;15.50;99.90
7002;DHT22;3541;53.230;10.518;2023-08-08T11:58:31;15.70;99.90
7002;DHT22;3541;53.230;10.518;2023-08-08T12:00:59;15.70;99.90
7002;DHT22;3541;53.230;10.518;2023-08-08T12:03:26;15.60;99.90
7002;DHT22;3541;53.230;10.518;2023-08-08T12:05:52;15.60;99.90
7002;DHT22;3541;53.230;10.518;2023-08-08T12:08:19;15.60;99.90
7002;DHT22;3541;53.230;10.518;2023-08-08T12:10:48;15.80;99.90
7002;DHT22;3541;53.230;10.518;2023-08-08T12:13:20;16.00;99.90
7002;DHT22;3541;53.230;10.518;2023-08-08T12:15:47;16.20;99.90
7002;DHT22;3541;53.230;10.518;2023-08-08T12:18:17;16.40;99.90
7002;DHT22;3541;53.230;10.518;2023-08-08T12:20:44;16.70;99.90
7002;DHT22;3541;53.230;10.518;2023-08-08T12:23:11;16.80;99.90
7002;DHT22;3541;53.230;10.518;2023-08-08T12:25:38;16.80;99.90
7002;DHT22;3541;53.230;10.518;2023-08-08T12:28:06;16.70;99.90
7002;DHT22;3541;53.230;10.518;2023-08-08T12:30:32;16.60;99.90
7002;DHT22;3541;53.230;10.518;2023-08-08T12:33:00;16.50;99.90
7002;DHT22;3541;53.230;10.518;2023-08-08T12:35:28;16.40;99.90
7002;DHT22;3541;53.230;10.518;2023-08-08T12:37:54;16.30;99.90
7002;DHT22;3541;53.230;10.518;2023-08-08T12:40:21;16.20;99.90
7002;DHT22;3541;53.230;10.518;2023-08-08T12:42:48;16.00;99.90
7002;DHT22;3541;53.230;10.518;2023-08-08T12:45:14;16.00;99.90
7002;DHT22;3541;53.230;10.518;2023-08-08T12:47:43;16.00;99.90
7002;DHT22;3541;53.230;10.518;2023-08-08T12:50:09;16.00;99.90
7002;DHT22;3541;53.230;10.518;2023-08-08T12:52:38;15.90;99.90
7002;DHT22;3541;53.230;10.518;2023-08-08T12:55:05;15.90;99.90
7002;DHT22;3541;53.230;10.518;2023-08-08T12:57:32;16.00;99.90
7002;DHT22;3541;53.230;10.518;2023-08-08T12:59:59;16.10;99.90
7002;DHT22;3541;53.230;10.518;2023-08-08T13:02:26;16.10;99.90
7002;DHT22;3541;53.230;10.518;2023-08-08T13:04:52;16.20;99.90
7002;DHT22;3541;53.230;10.518;2023-08-08T13:07:19;16.30;99.90
7002;DHT22;3541;53.230;10.518;2023-08-08T13:09:47;16.60;99.90
7002;DHT22;3541;53.230;10.518;2023-08-08T13:12:13;16.80;99.90
7002;DHT22;3541;53.230;10.518;2023-08-08T13:14:40;16.90;99.90
7002;DHT22;3541;53.230;10.518;2023-08-08T13:17:07;17.00;99.90
7002;DHT22;3541;53.230;10.518;2023-08-08T13:19:35;17.10;99.90
7002;DHT22;3541;53.230;10.518;2023-08-08T13:22:01;17.00;99.90
7002;DHT22;3541;53.230;10.518;2023-08-08T13:24:28;16.90;99.90
7002;DHT22;3541;53.230;10.518;2023-08-08T13:26:56;16.90;99.90
7002;DHT22;3541;53.230;10.518;2023-08-08T13:29:22;16.90;99.90
7002;DHT22;3541;53.230;10.518;2023-08-08T13:31:49;16.90;99.90
7002;DHT22;3541;53.230;10.518;2023-08-08T13:34:16;16.80;99.90
7002;DHT22;3541;53.230;10.518;2023-08-08T13:36:42;16.80;99.90
7002;DHT22;3541;53.230;10.518;2023-08-08T13:39:09;16.90;99.90
7002;DHT22;3541;53.230;10.518;2023-08-08T13:41:36;16.90;99.90
7002;DHT22;3541;53.230;10.518;2023-08-08T13:44:04;16.80;99.90
7002;DHT22;3541;53.230;10.518;2023-08-08T13:46:30;16.70;99.90
7002;DHT22;3541;53.230;10.518;2023-08-08T13:48:57;16.70;99.90
7002;DHT22;3541;53.230;10.518;2023-08-08T13:51:24;16.80;99.90
7002;DHT22;3541;53.230;10.518;2023-08-08T13:53:50;16.90;99.90
7002;DHT22;3541;53.230;10.518;2023-08-08T13:56:17;17.00;99.90
7002;DHT22;3541;53.230;10.518;2023-08-08T13:58:44;17.00;99.90
7002;DHT22;3541;53.230;10.518;2023-08-08T14:01:12;17.10;99.90
7002;DHT22;3541;53.230;10.518;2023-08-08T14:03:39;17.50;99.90
7002;DHT22;3541;53.230;10.518;2023-08-08T14:06:06;17.60;99.90
7002;DHT22;3541;53.230;10.518;2023-08-08T14:08:32;17.70;99.90
7002;DHT22;3541;53.230;10.518;2023-08-08T14:10:59;17.60;99.90
7002;DHT22;3541;53.230;10.518;2023-08-08T14:13:26;17.60;99.90
7002;DHT22;3541;53.230;10.518;2023-08-08T14:15:53;17.90;99.90
7002;DHT22;3541;53.230;10.518;2023-08-08T14:18:21;18.30;99.90
7002;DHT22;3541;53.230;10.518;2023-08-08T14:20:47;18.60;99.90
7002;DHT22;3541;53.230;10.518;2023-08-08T14:23:14;18.90;99.90
7002;DHT22;3541;53.230;10.518;2023-08-08T14:25:43;19.10;99.90
7002;DHT22;3541;53.230;10.518;2023-08-08T14:28:09;19.10;99.90
7002;DHT22;3541;53.230;10.518;2023-08-08T14:30:36;19.30;99.90
7002;DHT22;3541;53.230;10.518;2023-08-08T14:33:03;19.40;99.90
7002;DHT22;3541;53.230;10.518;2023-08-08T14:35:31;19.50;99.90
7002;DHT22;3541;53.230;10.518;2023-08-08T14:37:58;19.60;99.90
7002;DHT22;3541;53.230;10.518;2023-08-08T14:40:25;19.60;99.90
7002;DHT22;3541;53.230;10.518;2023-08-08T14:42:51;19.80;99.90
7002;DHT22;3541;53.230;10.518;2023-08-08T14:45:18;19.70;99.90
7002;DHT22;3541;53.230;10.518;2023-08-08T14:47:46;19.80;99.90
7002;DHT22;3541;53.230;10.518;2023-08-08T14:50:13;19.90;99.90
7002;DHT22;3541;53.230;10.518;2023-08-08T14:52:41;19.60;99.90
7002;DHT22;3541;53.230;10.518;2023-08-08T14:55:08;19.70;99.90
7002;DHT22;3541;53.230;10.518;2023-08-08T14:57:34;19.80;99.90
7002;DHT22;3541;53.230;10.518;2023-08-08T15:00:01;20.10;99.90
7002;DHT22;3541;53.230;10.518;2023-08-08T15:02:28;20.30;99.90
7002;DHT22;3541;53.230;10.518;2023-08-08T15:04:54;20.30;99.90
7002;DHT22;3541;53.230;10.518;2023-08-08T15:07:21;19.90;99.90
7002;DHT22;3541;53.230;10.518;2023-08-08T15:09:49;19.50;99.90
7002;DHT22;3541;53.230;10.518;2023-08-08T15:12:17;19.30;99.90
7002;DHT22;3541;53.230;10.518;2023-08-08T15:14:43;18.90;99.90
7002;DHT22;3541;53.230;10.518;2023-08-08T15:17:10;18.40;99.90
7002;DHT22;3541;53.230;10.518;2023-08-08T15:19:36;17.90;99.90
7002;DHT22;3541;53.230;10.518;2023-08-08T15:22:04;17.70;99.90
7002;DHT22;3541;53.230;10.518;2023-08-08T15:24:31;18.00;99.90
7002;DHT22;3541;53.230;10.518;2023-08-08T15:26:59;18.40;99.90
7002;DHT22;3541;53.230;10.518;2023-08-08T15:29:26;18.80;99.90
7002;DHT22;3541;53.230;10.518;2023-08-08T15:31:52;19.10;99.90
7002;DHT22;3541;53.230;10.518;2023-08-08T15:34:19;19.50;99.90
7002;DHT22;3541;53.230;10.518;2023-08-08T15:36:46;19.50;99.90
7002;DHT22;3541;53.230;10.518;2023-08-08T15:39:12;19.70;99.90
7002;DHT22;3541;53.230;10.518;2023-08-08T15:41:39;19.90;99.90
7002;DHT22;3541;53.230;10.518;2023-08-08T15:44:07;20.00;99.90